createdAt,value
2022-10-08T00:10:53.690Z,100.00
2022-10-08T00:15:57.795Z,100.00
2022-10-08T00:21:06.118Z,100.00
2022-10-08T00:26:11.237Z,100.00
2022-10-08T00:31:15.862Z,100.00
2022-10-08T00:36:19.517Z,100.00
2022-10-08T00:41:26.069Z,100.00
2022-10-08T00:46:32.363Z,100.00
2022-10-08T00:51:35.551Z,100.00
2022-10-08T00:56:40.696Z,100.00
2022-10-08T01:01:44.231Z,100.00
2022-10-08T01:06:54.102Z,100.00
2022-10-08T01:12:10.352Z,100.00
2022-10-08T01:17:23.307Z,100.00
2022-10-08T01:22:39.795Z,100.00
2022-10-08T01:27:47.053Z,100.00
2022-10-08T01:32:56.230Z,100.00
2022-10-08T01:38:02.097Z,100.00
2022-10-08T01:43:09.977Z,100.00
2022-10-08T01:48:17.384Z,100.00
2022-10-08T01:53:21.798Z,100.00
2022-10-08T01:58:37.287Z,100.00
2022-10-08T02:04:00.006Z,100.00
2022-10-08T02:09:03.472Z,100.00
2022-10-08T02:14:08.890Z,100.00
2022-10-08T02:19:18.316Z,100.00
2022-10-08T02:24:26.919Z,100.00
2022-10-08T02:29:38.144Z,100.00
2022-10-08T02:34:45.285Z,100.00
2022-10-08T02:39:51.999Z,100.00
2022-10-08T02:45:02.134Z,100.00
2022-10-08T02:50:11.269Z,100.00
2022-10-08T02:55:23.402Z,100.00
2022-10-08T03:00:35.253Z,100.00
2022-10-08T03:05:40.421Z,100.00
2022-10-08T03:10:45.393Z,100.00
2022-10-08T03:15:51.833Z,100.00
2022-10-08T03:20:56.098Z,100.00
2022-10-08T03:25:58.847Z,100.00
2022-10-08T03:31:06.317Z,100.00
2022-10-08T03:36:09.239Z,100.00
2022-10-08T03:41:11.987Z,100.00
2022-10-08T03:46:16.656Z,100.00
2022-10-08T03:51:21.745Z,100.00
2022-10-08T03:56:25.877Z,100.00
2022-10-08T04:01:30.469Z,100.00
2022-10-08T04:06:33.320Z,100.00
2022-10-08T04:11:36.680Z,100.00
2022-10-08T04:16:40.726Z,100.00
2022-10-08T04:21:43.448Z,100.00
2022-10-08T04:26:46.134Z,100.00
2022-10-08T04:31:50.412Z,100.00
2022-10-08T04:36:53.141Z,100.00
2022-10-08T04:41:55.854Z,100.00
2022-10-08T04:46:59.913Z,100.00
2022-10-08T04:52:02.696Z,100.00
2022-10-08T04:57:05.481Z,100.00
2022-10-08T05:02:09.665Z,100.00
2022-10-08T05:07:12.401Z,100.00
2022-10-08T05:12:15.095Z,100.00
2022-10-08T05:17:19.330Z,100.00
2022-10-08T05:22:22.336Z,100.00
2022-10-08T05:27:25.046Z,100.00
2022-10-08T05:32:29.252Z,100.00
2022-10-08T05:37:31.943Z,100.00
2022-10-08T05:42:34.635Z,100.00
2022-10-08T05:47:38.738Z,100.00
2022-10-08T05:52:41.454Z,100.00
2022-10-08T05:57:44.166Z,100.00
2022-10-08T06:02:50.840Z,100.00
2022-10-08T06:07:57.419Z,100.00
2022-10-08T06:13:00.124Z,100.00
2022-10-08T06:18:05.345Z,100.00
2022-10-08T06:23:08.116Z,100.00
2022-10-08T06:28:11.208Z,100.00
2022-10-08T06:33:16.809Z,100.00
2022-10-08T06:38:19.515Z,100.00
2022-10-08T06:43:22.209Z,100.00
2022-10-08T06:48:27.389Z,100.00
2022-10-08T06:53:30.400Z,100.00
2022-10-08T06:58:35.303Z,100.00
2022-10-08T07:03:39.521Z,100.00
2022-10-08T07:08:42.308Z,100.00
2022-10-08T07:13:46.161Z,100.00
2022-10-08T07:18:51.973Z,100.00
2022-10-08T07:23:54.770Z,100.00
2022-10-08T07:28:59.421Z,100.00
2022-10-08T07:34:05.858Z,100.00
2022-10-08T07:39:12.596Z,100.00
2022-10-08T07:44:16.385Z,100.00
2022-10-08T07:49:20.797Z,100.00
2022-10-08T07:54:23.569Z,100.00
2022-10-08T07:59:26.409Z,100.00
2022-10-08T08:04:30.978Z,100.00
2022-10-08T08:09:33.857Z,100.00
2022-10-08T08:14:36.607Z,100.00
2022-10-08T08:19:41.658Z,100.00
2022-10-08T08:24:44.397Z,100.00
2022-10-08T08:29:47.238Z,100.00
2022-10-08T08:34:51.439Z,100.00
2022-10-08T08:39:54.142Z,100.00
2022-10-08T08:45:00.599Z,100.00
2022-10-08T08:50:09.594Z,100.00
2022-10-08T08:55:15.745Z,100.00
2022-10-08T09:00:22.230Z,100.00
2022-10-08T09:05:28.747Z,100.00
2022-10-08T09:10:40.041Z,100.00
2022-10-08T09:15:43.793Z,100.00
2022-10-08T09:20:48.085Z,100.00
2022-10-08T09:25:57.445Z,100.00
2022-10-08T09:31:13.475Z,100.00
2022-10-08T09:36:30.055Z,100.00
2022-10-08T09:41:33.120Z,100.00
2022-10-08T09:46:35.867Z,100.00
2022-10-08T09:51:43.131Z,100.00
2022-10-08T09:56:53.470Z,100.00
2022-10-08T10:01:57.943Z,100.00
2022-10-08T10:07:03.279Z,100.00
2022-10-08T10:12:15.770Z,97.39
2022-10-08T10:17:26.438Z,99.57
2022-10-08T10:22:36.443Z,98.11
2022-10-08T10:27:43.234Z,98.45
2022-10-08T10:32:50.951Z,95.70
2022-10-08T10:38:00.961Z,94.70
2022-10-08T10:43:40.851Z,95.77
2022-10-08T10:48:43.753Z,91.20
2022-10-08T10:54:01.014Z,89.91
2022-10-08T10:59:18.714Z,91.32
2022-10-08T11:04:32.139Z,86.51
2022-10-08T11:09:45.994Z,84.57
2022-10-08T11:15:00.258Z,80.70
2022-10-08T11:20:21.217Z,76.99
2022-10-08T11:25:49.762Z,73.68
2022-10-08T11:31:05.505Z,72.66
2022-10-08T11:36:22.500Z,68.75
2022-10-08T11:41:33.086Z,66.69
2022-10-08T11:46:37.046Z,64.72
2022-10-08T11:51:41.271Z,63.47
2022-10-08T11:56:47.620Z,59.54
2022-10-08T12:01:52.594Z,58.51
2022-10-08T12:07:04.175Z,57.11
2022-10-08T12:12:15.259Z,54.73
2022-10-08T12:17:18.630Z,56.88
2022-10-08T12:22:43.966Z,54.58
2022-10-08T12:27:48.205Z,57.04
2022-10-08T12:32:56.696Z,57.54
2022-10-08T12:38:27.924Z,56.45
2022-10-08T12:43:40.801Z,53.36
2022-10-08T12:48:50.732Z,53.21
2022-10-08T12:53:53.735Z,52.30
2022-10-08T12:59:03.598Z,54.43
2022-10-08T13:04:19.247Z,55.71
2022-10-08T13:09:27.952Z,57.75
2022-10-08T13:14:34.279Z,58.87
2022-10-08T13:19:38.640Z,60.25
2022-10-08T13:24:42.790Z,61.32
2022-10-08T13:29:46.934Z,60.80
2022-10-08T13:34:52.152Z,59.49
2022-10-08T13:39:56.503Z,59.96
2022-10-08T13:45:02.664Z,59.52
2022-10-08T13:50:06.003Z,59.16
2022-10-08T13:55:22.363Z,57.77
2022-10-08T14:00:27.544Z,58.76
2022-10-08T14:05:33.125Z,59.09
2022-10-08T14:10:36.161Z,57.29
2022-10-08T14:15:40.543Z,60.08
2022-10-08T14:20:43.646Z,59.27
2022-10-08T14:25:46.413Z,59.32
2022-10-08T14:30:50.597Z,61.03
2022-10-08T14:35:54.389Z,60.47
2022-10-08T14:40:57.465Z,60.63
2022-10-08T14:46:02.176Z,61.06
2022-10-08T14:51:05.102Z,61.48
2022-10-08T14:56:12.521Z,60.23
2022-10-08T15:01:16.891Z,60.27
2022-10-08T15:06:19.605Z,58.82
2022-10-08T15:11:22.343Z,61.42
2022-10-08T15:16:26.775Z,68.53
2022-10-08T15:21:29.586Z,69.97
2022-10-08T15:26:32.314Z,70.68
2022-10-08T15:31:36.951Z,70.42
2022-10-08T15:36:39.668Z,70.10
2022-10-08T15:41:44.102Z,70.71
2022-10-08T15:46:49.546Z,71.07
2022-10-08T15:51:52.236Z,70.87
2022-10-08T15:56:55.299Z,68.73
2022-10-08T16:01:59.475Z,68.68
2022-10-08T16:07:02.287Z,69.71
2022-10-08T16:12:05.162Z,69.33
2022-10-08T16:17:09.480Z,68.47
2022-10-08T16:22:12.264Z,70.13
2022-10-08T16:27:15.065Z,70.12
2022-10-08T16:32:19.213Z,71.10
2022-10-08T16:37:22.367Z,71.47
2022-10-08T16:42:25.668Z,71.12
2022-10-08T16:47:30.305Z,71.64
2022-10-08T16:52:33.492Z,72.78
2022-10-08T16:57:36.319Z,73.43
2022-10-08T17:02:40.536Z,74.04
2022-10-08T17:07:43.494Z,74.48
2022-10-08T17:12:46.482Z,75.82
2022-10-08T17:17:54.737Z,76.53
2022-10-08T17:22:58.372Z,78.03
2022-10-08T17:28:02.194Z,78.07
2022-10-08T17:33:06.727Z,79.32
2022-10-08T17:38:09.761Z,82.67
2022-10-08T17:43:12.481Z,83.48
2022-10-08T17:48:16.571Z,84.57
2022-10-08T17:53:19.338Z,84.03
2022-10-08T17:58:23.028Z,84.25
2022-10-08T18:03:28.652Z,86.03
2022-10-08T18:08:31.495Z,86.46
2022-10-08T18:13:35.067Z,88.35
2022-10-08T18:18:39.246Z,87.75
2022-10-08T18:23:43.083Z,88.64
2022-10-08T18:28:46.172Z,89.78
2022-10-08T18:33:52.495Z,91.78
2022-10-08T18:38:57.048Z,91.73
2022-10-08T18:44:00.705Z,92.42
2022-10-08T18:49:06.132Z,91.16
2022-10-08T18:54:10.513Z,92.31
2022-10-08T18:59:15.070Z,96.43
2022-10-08T19:04:21.584Z,100.00
2022-10-08T19:09:24.431Z,100.00
2022-10-08T19:14:28.114Z,100.00
2022-10-08T19:19:32.713Z,100.00
2022-10-08T19:24:39.960Z,100.00
2022-10-08T19:29:43.711Z,100.00
2022-10-08T19:34:47.907Z,100.00
2022-10-08T19:39:50.747Z,100.00
2022-10-08T19:44:53.542Z,100.00
2022-10-08T19:49:57.779Z,100.00
2022-10-08T19:55:00.592Z,100.00
2022-10-08T20:00:04.463Z,100.00
2022-10-08T20:05:09.702Z,100.00
2022-10-08T20:10:16.214Z,100.00
2022-10-08T20:15:19.020Z,100.00
2022-10-08T20:20:33.029Z,100.00
2022-10-08T20:25:36.403Z,100.00
2022-10-08T20:30:39.246Z,100.00
2022-10-08T20:35:43.368Z,100.00
2022-10-08T20:40:46.257Z,100.00
2022-10-08T20:45:49.666Z,100.00
2022-10-08T20:50:53.805Z,100.00
2022-10-08T20:55:56.650Z,100.00
2022-10-08T21:01:05.197Z,100.00
2022-10-08T21:06:09.563Z,100.00
2022-10-08T21:11:13.939Z,100.00
2022-10-08T21:16:19.411Z,100.00
2022-10-08T21:21:24.392Z,100.00
2022-10-08T21:26:28.997Z,100.00
2022-10-08T21:31:34.068Z,100.00
2022-10-08T21:36:40.272Z,100.00
2022-10-08T21:41:43.041Z,100.00
2022-10-08T21:46:46.191Z,100.00
2022-10-08T21:51:50.505Z,100.00
2022-10-08T21:56:53.279Z,100.00
2022-10-08T22:01:57.478Z,100.00
2022-10-08T22:07:04.533Z,100.00
2022-10-08T22:12:07.377Z,100.00
2022-10-08T22:17:10.096Z,100.00
2022-10-08T22:22:16.949Z,100.00
2022-10-08T22:27:19.891Z,100.00
2022-10-08T22:32:23.291Z,100.00
2022-10-08T22:37:27.363Z,100.00
2022-10-08T22:42:30.209Z,100.00
2022-10-08T22:47:33.579Z,100.00
2022-10-08T22:52:37.735Z,100.00
2022-10-08T22:57:40.742Z,100.00
2022-10-08T23:02:43.475Z,100.00
2022-10-08T23:07:47.763Z,100.00
2022-10-08T23:12:50.695Z,100.00
2022-10-08T23:17:53.717Z,100.00
2022-10-08T23:22:57.795Z,100.00
2022-10-08T23:28:00.519Z,100.00
2022-10-08T23:33:03.850Z,100.00
2022-10-08T23:38:08.055Z,100.00
2022-10-08T23:43:10.765Z,100.00
2022-10-08T23:48:13.476Z,100.00
2022-10-08T23:53:17.682Z,100.00
2022-10-08T23:58:20.389Z,100.00
